Time;durP1;ratioP1;P1;durP2;ratioP2;P2;SDS_P1;SDS_P2;PMS_P1;PMS_P2;Temp;Humidity;BMP_temperature;BMP_pressure;BME280_temperature;BME280_humidity;BME280_pressure;Samples;Min_cycle;Max_cycle;Signal;HPM_P1;HPM_P2
2022/05/19 00:01:53;;;;;;;12.40;11.13;;;16.30;99.90;;;;;;5049637;28;20124;-82
2022/05/19 00:04:19;;;;;;;17.58;12.02;;;16.40;99.90;;;;;;5051185;28;20178;-84
2022/05/19 00:06:45;;;;;;;14.80;11.73;;;16.40;99.90;;;;;;5021367;28;20120;-85
2022/05/19 00:09:11;;;;;;;14.93;11.07;;;16.40;99.90;;;;;;5013954;28;20052;-84
2022/05/19 00:11:38;;;;;;;16.00;11.02;;;16.20;99.90;;;;;;5009460;28;20049;-83
2022/05/19 00:14:04;;;;;;;17.08;12.55;;;17.40;99.90;;;;;;5019053;28;20045;-84
2022/05/19 00:16:29;;;;;;;15.68;12.55;;;16.50;99.90;;;;;;5022658;28;20378;-81
2022/05/19 00:18:55;;;;;;;13.02;11.63;;;17.70;99.90;;;;;;5030309;28;20044;-83
2022/05/19 00:21:21;;;;;;;15.20;11.50;;;16.90;99.90;;;;;;5028486;28;20131;-84
2022/05/19 00:23:47;;;;;;;14.80;13.00;;;16.50;99.90;;;;;;5020528;28;20484;-84
2022/05/19 00:26:13;;;;;;;17.15;11.70;;;17.40;99.90;;;;;;5039242;28;20374;-84
2022/05/19 00:28:39;;;;;;;18.45;12.48;;;16.40;99.90;;;;;;5028135;28;20048;-81
2022/05/19 00:31:05;;;;;;;17.33;13.68;;;16.50;99.90;;;;;;5035471;28;20037;-84
2022/05/19 00:33:30;;;;;;;19.55;13.82;;;16.50;99.90;;;;;;5037569;28;20547;-83
2022/05/19 00:35:56;;;;;;;20.42;12.68;;;16.50;99.90;;;;;;5042204;28;20052;-84
2022/05/19 00:38:22;;;;;;;15.07;11.98;;;16.60;99.90;;;;;;5042112;28;20431;-82
2022/05/19 00:40:54;;;;;;;14.23;12.88;;;17.50;99.90;;;;;;5022303;28;20423;-84
2022/05/19 00:43:31;;;;;;;18.25;12.77;;;16.50;99.90;;;;;;5005218;28;20041;-84
2022/05/19 00:46:05;;;;;;;17.73;13.88;;;16.60;99.90;;;;;;5039405;28;20037;-84
2022/05/19 00:48:44;;;;;;;18.45;14.90;;;16.50;99.90;;;;;;5020413;28;20049;-84
2022/05/19 00:51:11;;;;;;;20.55;14.25;;;16.40;99.90;;;;;;5022619;28;20041;-81
2022/05/19 00:53:45;;;;;;;20.95;14.57;;;16.30;99.90;;;;;;5038659;28;20068;-83
2022/05/19 00:56:24;;;;;;;17.65;13.65;;;16.30;99.90;;;;;;5031044;28;20053;-82
2022/05/19 00:59:05;;;;;;;21.58;13.07;;;16.40;99.90;;;;;;5010426;28;20406;-80
2022/05/19 01:01:32;;;;;;;17.05;13.63;;;16.40;99.90;;;;;;5034140;28;20037;-85
2022/05/19 01:04:06;;;;;;;21.02;13.85;;;16.70;99.90;;;;;;5010231;28;20059;-78
2022/05/19 01:06:34;;;;;;;23.88;15.13;;;16.40;99.90;;;;;;5024332;28;20148;-81
2022/05/19 01:09:07;;;;;;;23.58;15.05;;;16.40;99.90;;;;;;5006641;28;20045;-81
2022/05/19 01:11:33;;;;;;;24.33;14.50;;;16.40;99.90;;;;;;5038809;28;20106;-83
2022/05/19 01:13:59;;;;;;;19.33;14.73;;;16.40;99.90;;;;;;5021936;28;20041;-85
2022/05/19 01:16:25;;;;;;;18.60;13.95;;;16.40;99.90;;;;;;5039918;28;20455;-83
2022/05/19 01:18:51;;;;;;;15.43;13.30;;;16.80;99.90;;;;;;5038676;28;20063;-83
2022/05/19 01:21:21;;;;;;;19.65;14.90;;;16.40;99.90;;;;;;5026926;28;20045;-82
2022/05/19 01:24:01;;;;;;;19.98;14.43;;;17.60;99.90;;;;;;5027572;28;20045;-85
2022/05/19 01:26:47;;;;;;;20.95;13.40;;;16.30;99.90;;;;;;5024353;28;20486;-84
2022/05/19 01:29:15;;;;;;;20.33;15.27;;;16.40;99.90;;;;;;5021034;28;20316;-82
2022/05/19 01:31:50;;;;;;;24.15;16.27;;;16.30;99.90;;;;;;5028571;28;20451;-84
2022/05/19 01:34:18;;;;;;;20.00;15.65;;;16.20;99.90;;;;;;5009425;28;20041;-84
2022/05/19 01:36:44;;;;;;;19.00;14.32;;;16.20;99.90;;;;;;5021600;28;20036;-82
2022/05/19 01:39:20;;;;;;;23.92;15.90;;;16.30;99.90;;;;;;5016016;28;20034;-83
2022/05/19 01:42:04;;;;;;;19.58;15.85;;;16.30;99.90;;;;;;5008318;28;20257;-85
2022/05/19 01:44:46;;;;;;;25.17;16.75;;;16.30;99.90;;;;;;5019714;28;20398;-81
2022/05/19 01:47:35;;;;;;;29.10;18.08;;;16.20;99.90;;;;;;5024320;28;20039;-84
2022/05/19 01:50:21;;;;;;;26.23;20.02;;;16.10;99.90;;;;;;5033083;28;20049;-83
2022/05/19 01:53:00;;;;;;;29.58;20.10;;;16.00;99.90;;;;;;5025557;28;20497;-82
2022/05/19 01:55:28;;;;;;;26.85;20.95;;;15.90;99.90;;;;;;5041670;28;20246;-85
2022/05/19 01:58:13;;;;;;;24.27;20.17;;;15.90;99.90;;;;;;5033910;28;20113;-84
2022/05/19 02:00:39;;;;;;;27.95;21.15;;;16.80;99.90;;;;;;5026181;28;20079;-84
2022/05/19 02:03:37;;;;;;;29.52;21.73;;;15.70;99.90;;;;;;5008945;28;20068;-81
2022/05/19 02:06:16;;;;;;;24.52;19.77;;;15.60;99.90;;;;;;5033216;28;20073;-84
2022/05/19 02:09:05;;;;;;;31.20;25.65;;;15.60;99.90;;;;;;5026598;28;20134;-80
2022/05/19 02:11:35;;;;;;;26.02;22.48;;;15.60;99.90;;;;;;5027115;28;20045;-81
2022/05/19 02:14:06;;;;;;;38.42;26.65;;;15.50;99.90;;;;;;5042428;28;20524;-83
2022/05/19 02:16:32;;;;;;;35.50;23.73;;;15.50;99.90;;;;;;5021514;28;20684;-85
2022/05/19 02:18:58;;;;;;;32.85;26.92;;;15.40;99.90;;;;;;5022024;28;20473;-85
2022/05/19 02:21:25;;;;;;;40.42;27.00;;;15.50;99.90;;;;;;5031014;28;20037;-83
2022/05/19 02:23:52;;;;;;;39.25;24.95;;;15.40;99.90;;;;;;5014155;28;20037;-84
2022/05/19 02:26:17;;;;;;;40.03;29.15;;;15.30;99.90;;;;;;5027836;28;20049;-85
2022/05/19 02:28:47;;;;;;;39.83;27.60;;;15.20;99.90;;;;;;5044115;28;20404;-81
2022/05/19 02:31:15;;;;;;;36.63;29.15;;;15.20;99.90;;;;;;5028547;28;20037;-84
2022/05/19 02:33:41;;;;;;;43.70;28.75;;;15.20;99.90;;;;;;5049468;28;20045;-81
2022/05/19 02:36:08;;;;;;;36.72;28.00;;;15.60;99.90;;;;;;5024623;28;20051;-84
2022/05/19 02:38:34;;;;;;;37.28;28.27;;;15.20;99.90;;;;;;5047586;28;20037;-83
2022/05/19 02:41:00;;;;;;;41.95;30.85;;;15.40;99.90;;;;;;5029071;28;20051;-82
2022/05/19 02:43:26;;;;;;;39.13;29.05;;;15.60;99.90;;;;;;5045750;28;20120;-83
2022/05/19 02:45:52;;;;;;;38.95;28.55;;;16.10;99.90;;;;;;5026316;28;20072;-80
2022/05/19 02:48:19;;;;;;;43.10;31.02;;;15.80;99.90;;;;;;5041068;28;20065;-84
2022/05/19 02:50:46;;;;;;;40.70;31.88;;;15.10;99.90;;;;;;5024341;28;20040;-79
2022/05/19 02:53:12;;;;;;;36.63;29.25;;;15.10;99.90;;;;;;5029994;28;20048;-82
2022/05/19 02:55:42;;;;;;;47.38;32.83;;;16.20;99.90;;;;;;5021836;28;20106;-82
2022/05/19 02:58:08;;;;;;;38.70;32.22;;;15.10;99.90;;;;;;5027123;28;20026;-82
2022/05/19 03:00:34;;;;;;;44.53;35.50;;;15.10;99.90;;;;;;5031764;28;20052;-84
2022/05/19 03:03:00;;;;;;;50.78;37.88;;;15.10;99.90;;;;;;5012974;28;20112;-84
2022/05/19 03:05:29;;;;;;;51.05;39.15;;;15.20;99.90;;;;;;5047030;28;20166;-83
2022/05/19 03:07:55;;;;;;;54.70;40.30;;;15.20;99.90;;;;;;5029223;28;20041;-82
2022/05/19 03:10:22;;;;;;;55.63;40.00;;;15.10;99.90;;;;;;5026496;28;20050;-84
2022/05/19 03:12:48;;;;;;;52.47;39.60;;;15.20;99.90;;;;;;5008582;28;20033;-83
2022/05/19 03:15:14;;;;;;;53.78;40.78;;;14.90;99.90;;;;;;5044606;28;20094;-85
2022/05/19 03:17:40;;;;;;;58.85;44.22;;;15.10;99.90;;;;;;5029224;28;20041;-84
2022/05/19 03:20:09;;;;;;;50.72;40.75;;;15.20;99.90;;;;;;5010081;28;20376;-79
2022/05/19 03:22:35;;;;;;;56.17;40.75;;;15.20;99.90;;;;;;5026376;28;20164;-84
2022/05/19 03:25:01;;;;;;;48.13;38.17;;;16.50;99.90;;;;;;5044180;28;20073;-83
2022/05/19 03:27:27;;;;;;;49.08;40.00;;;16.30;99.90;;;;;;5021946;28;20041;-85
2022/05/19 03:29:53;;;;;;;51.58;42.38;;;16.40;99.90;;;;;;5021098;28;20041;-85
2022/05/19 03:32:19;;;;;;;55.40;46.47;;;15.60;99.90;;;;;;5009081;28;20091;-85
2022/05/19 03:34:45;;;;;;;59.28;47.55;;;15.30;99.90;;;;;;5042577;28;20132;-86
2022/05/19 03:37:11;;;;;;;57.63;44.67;;;15.30;99.90;;;;;;5029518;28;20565;-85
2022/05/19 03:39:38;;;;;;;56.63;45.97;;;15.60;99.90;;;;;;5012812;28;20052;-84
2022/05/19 03:42:06;;;;;;;53.78;43.85;;;16.70;99.90;;;;;;5029519;28;20048;-86
2022/05/19 03:44:32;;;;;;;54.55;43.20;;;15.40;99.90;;;;;;5031055;28;20374;-85
2022/05/19 03:46:58;;;;;;;60.78;45.78;;;15.50;99.90;;;;;;5039085;28;20322;-83
2022/05/19 03:49:24;;;;;;;59.30;46.70;;;15.50;99.90;;;;;;5026648;28;20084;-85
2022/05/19 03:51:50;;;;;;;60.92;45.78;;;15.80;99.90;;;;;;5008416;28;20060;-85
2022/05/19 03:54:16;;;;;;;59.38;48.78;;;15.50;99.90;;;;;;5041666;28;20048;-84
2022/05/19 03:56:42;;;;;;;56.72;42.53;;;15.60;99.90;;;;;;5009508;28;20488;-83
2022/05/19 03:59:08;;;;;;;55.80;45.38;;;15.60;99.90;;;;;;5025033;28;20033;-86
2022/05/19 04:01:34;;;;;;;52.42;44.88;;;15.70;99.90;;;;;;5025748;28;20053;-85
2022/05/19 04:04:00;;;;;;;58.05;45.55;;;15.70;99.90;;;;;;5007172;28;20423;-85
2022/05/19 04:06:29;;;;;;;59.60;47.03;;;15.70;99.90;;;;;;5026065;28;20045;-84
2022/05/19 04:08:55;;;;;;;56.40;46.25;;;16.20;99.90;;;;;;5041006;28;20044;-84
2022/05/19 04:11:21;;;;;;;52.17;42.58;;;15.70;99.90;;;;;;5027186;28;20052;-83
2022/05/19 04:13:46;;;;;;;53.88;43.88;;;16.30;99.90;;;;;;5027451;28;20873;-85
2022/05/19 04:16:12;;;;;;;53.55;42.28;;;15.90;99.90;;;;;;5040952;28;20447;-82
2022/05/19 04:18:38;;;;;;;54.47;43.97;;;15.90;99.90;;;;;;5026816;28;20041;-85
2022/05/19 04:21:04;;;;;;;48.15;40.55;;;16.10;99.90;;;;;;5016259;28;20041;-83
2022/05/19 04:23:33;;;;;;;51.72;43.50;;;15.80;99.90;;;;;;5024281;28;20045;-86
2022/05/19 04:25:59;;;;;;;51.97;44.10;;;16.00;99.90;;;;;;5029644;28;20049;-86
2022/05/19 04:28:25;;;;;;;60.80;49.40;;;15.90;99.90;;;;;;5027725;28;20451;-83
2022/05/19 04:30:50;;;;;;;55.10;48.20;;;16.10;99.90;;;;;;5027008;28;20132;-82
2022/05/19 04:33:16;;;;;;;55.78;44.83;;;17.20;99.90;;;;;;5041424;28;20044;-86
2022/05/19 04:35:42;;;;;;;60.03;45.35;;;15.10;99.90;;;;;;5028256;28;20052;-83
2022/05/19 04:38:11;;;;;;;58.05;45.67;;;17.20;99.90;;;;;;5013221;28;20119;-85
2022/05/19 04:40:38;;;;;;;53.40;43.97;;;16.00;99.90;;;;;;5015261;28;20052;-84
2022/05/19 04:43:05;;;;;;;58.22;46.03;;;16.10;99.90;;;;;;5032653;28;20136;-83
2022/05/19 04:45:31;;;;;;;55.28;45.38;;;16.10;99.90;;;;;;5044475;28;20369;-86
2022/05/19 04:47:56;;;;;;;54.15;43.55;;;16.10;99.90;;;;;;5023426;28;20044;-84
2022/05/19 04:50:22;;;;;;;57.10;47.28;;;16.20;99.90;;;;;;5040402;28;20092;-85
2022/05/19 04:52:47;;;;;;;54.55;44.20;;;17.20;99.90;;;;;;5029045;28;20103;-87
2022/05/19 04:55:13;;;;;;;57.47;41.83;;;16.30;99.90;;;;;;5004623;28;20042;-85
2022/05/19 04:57:42;;;;;;;55.63;43.55;;;15.50;99.90;;;;;;5025127;28;20037;-81
2022/05/19 05:00:13;;;;;;;53.83;42.67;;;16.40;99.90;;;;;;5020650;28;20033;-86
2022/05/19 05:02:40;;;;;;;51.00;43.25;;;16.80;99.90;;;;;;5028168;28;20404;-83
2022/05/19 05:05:06;;;;;;;53.60;42.15;;;16.50;99.90;;;;;;5022311;28;20124;-83
2022/05/19 05:07:32;;;;;;;45.35;40.30;;;16.50;99.90;;;;;;5038173;28;20512;-83
2022/05/19 05:09:58;;;;;;;47.00;39.10;;;16.60;99.90;;;;;;4327007;28;10000778;-84
2022/05/19 05:12:23;;;;;;;50.63;40.15;;;16.60;99.90;;;;;;5021455;28;20480;-82
2022/05/19 05:14:50;;;;;;;47.53;40.30;;;17.40;99.90;;;;;;5005289;28;20053;-86
2022/05/19 05:17:16;;;;;;;44.45;38.58;;;17.70;99.90;;;;;;4991456;28;20046;-82
2022/05/19 05:19:42;;;;;;;60.22;40.40;;;16.80;99.90;;;;;;5003518;28;20089;-84
2022/05/19 05:22:08;;;;;;;47.85;40.70;;;16.90;99.90;;;;;;4981396;28;20049;-81
2022/05/19 05:24:34;;;;;;;51.75;41.08;;;16.90;99.90;;;;;;5003823;28;20449;-82
2022/05/19 05:27:00;;;;;;;48.42;39.33;;;16.90;99.90;;;;;;5000686;28;20144;-83
2022/05/19 05:29:25;;;;;;;49.83;41.60;;;16.90;99.90;;;;;;5013361;28;20064;-84
2022/05/19 05:31:51;;;;;;;45.55;40.50;;;17.00;99.90;;;;;;4998088;28;20478;-82
2022/05/19 05:34:17;;;;;;;51.40;41.90;;;17.00;99.90;;;;;;4995626;28;20057;-80
2022/05/19 05:36:43;;;;;;;48.95;38.70;;;17.10;99.90;;;;;;4998196;28;20099;-76
2022/05/19 05:39:09;;;;;;;52.95;37.95;;;17.30;99.90;;;;;;4996544;28;20046;-77
2022/05/19 05:41:35;;;;;;;45.58;38.22;;;17.20;99.90;;;;;;4995814;28;20053;-81
2022/05/19 05:44:01;;;;;;;43.50;35.03;;;17.30;99.90;;;;;;4996965;28;20504;-74
2022/05/19 05:46:26;;;;;;;38.15;32.83;;;17.30;99.90;;;;;;4992964;28;20045;-76
2022/05/19 05:48:52;;;;;;;44.67;34.35;;;17.40;99.90;;;;;;5013170;28;20614;-80
2022/05/19 05:51:17;;;;;;;38.42;32.47;;;17.50;99.90;;;;;;5017133;28;20046;-83
2022/05/19 05:53:45;;;;;;;36.60;30.50;;;17.70;99.90;;;;;;4996259;28;20050;-84
2022/05/19 05:56:15;;;;;;;43.28;31.30;;;17.70;99.90;;;;;;5019950;28;20125;-84
2022/05/19 05:58:41;;;;;;;37.88;30.75;;;17.80;99.90;;;;;;5011536;28;20053;-85
2022/05/19 06:01:09;;;;;;;36.65;30.10;;;17.80;99.90;;;;;;5003348;28;20065;-81
2022/05/19 06:03:35;;;;;;;31.80;28.27;;;17.80;99.90;;;;;;4979940;28;20088;-85
2022/05/19 06:06:01;;;;;;;32.08;28.48;;;17.90;99.90;;;;;;5003932;28;20053;-87
2022/05/19 06:08:27;;;;;;;35.50;29.60;;;17.90;99.90;;;;;;5003450;28;20038;-86
2022/05/19 06:10:53;;;;;;;32.75;28.67;;;17.90;99.90;;;;;;5004543;28;20042;-83
2022/05/19 06:13:19;;;;;;;31.80;26.67;;;18.00;99.90;;;;;;5006078;28;20068;-82
2022/05/19 06:15:45;;;;;;;34.90;27.67;;;18.00;99.90;;;;;;5028132;28;20385;-88
2022/05/19 06:18:11;;;;;;;31.15;27.60;;;18.00;99.90;;;;;;5046848;28;20052;-85
2022/05/19 06:20:38;;;;;;;35.70;26.83;;;18.30;99.90;;;;;;5043784;28;20087;-75
2022/05/19 06:23:04;;;;;;;31.67;26.08;;;18.00;99.90;;;;;;5024790;28;20540;-81
2022/05/19 06:25:30;;;;;;;30.35;25.88;;;18.10;99.90;;;;;;5018959;28;20091;-80
2022/05/19 06:27:56;;;;;;;35.70;27.92;;;19.10;99.90;;;;;;5037171;28;20481;-76
2022/05/19 06:30:23;;;;;;;30.48;27.17;;;18.00;99.90;;;;;;5021910;28;20340;-77
2022/05/19 06:32:49;;;;;;;49.53;35.83;;;18.00;99.90;;;;;;5021498;28;20519;-78
2022/05/19 06:35:19;;;;;;;27.63;24.63;;;18.00;99.90;;;;;;5020885;28;20077;-77
2022/05/19 06:37:44;;;;;;;30.02;23.48;;;18.10;99.90;;;;;;5038140;28;20046;-75
2022/05/19 06:40:13;;;;;;;27.23;22.60;;;18.10;99.90;;;;;;5019538;28;20056;-79
2022/05/19 06:42:39;;;;;;;28.73;23.00;;;18.10;99.90;;;;;;5007597;28;20578;-75
2022/05/19 06:45:05;;;;;;;27.77;22.17;;;18.40;99.90;;;;;;5020090;28;20042;-80
2022/05/19 06:47:31;;;;;;;27.00;23.08;;;18.00;99.90;;;;;;5005460;28;20052;-77
2022/05/19 06:49:57;;;;;;;26.77;23.30;;;18.00;99.90;;;;;;5021379;28;20041;-77
2022/05/19 06:52:28;;;;;;;28.83;23.52;;;18.10;99.90;;;;;;5017589;28;20406;-81
2022/05/19 06:54:56;;;;;;;26.48;22.48;;;18.10;99.90;;;;;;5035480;28;20041;-76
2022/05/19 06:57:23;;;;;;;25.88;22.95;;;18.60;99.90;;;;;;5039984;28;20045;-75
2022/05/19 06:59:50;;;;;;;29.55;24.30;;;18.50;99.90;;;;;;5024882;28;20080;-79
2022/05/19 07:02:17;;;;;;;26.33;23.55;;;18.10;99.90;;;;;;5037028;28;20045;-75
2022/05/19 07:04:44;;;;;;;27.38;24.42;;;18.10;99.90;;;;;;5008502;28;20094;-76
2022/05/19 07:07:10;;;;;;;27.88;24.85;;;18.10;99.90;;;;;;5042601;28;20094;-81
2022/05/19 07:09:36;;;;;;;30.80;24.48;;;18.20;99.90;;;;;;5025260;28;20041;-77
2022/05/19 07:12:04;;;;;;;31.00;25.65;;;19.10;99.90;;;;;;5026618;28;20613;-76
2022/05/19 07:14:30;;;;;;;27.33;22.95;;;18.20;99.90;;;;;;5009010;28;20091;-79
2022/05/19 07:16:55;;;;;;;29.90;22.13;;;18.20;99.90;;;;;;5042566;28;20393;-75
2022/05/19 07:22:06;;;;;;;;;;;18.20;99.90;;;;;;5038699;28;20053;-78
2022/05/19 07:24:32;;;;;;;26.67;20.60;;;18.20;99.90;;;;;;5024597;28;19920;-80
2022/05/19 07:26:59;;;;;;;25.30;18.83;;;18.20;99.90;;;;;;5007713;28;20126;-76
2022/05/19 07:29:25;;;;;;;23.02;18.75;;;19.20;99.90;;;;;;5007907;28;20504;-76
2022/05/19 07:31:52;;;;;;;25.13;19.70;;;19.10;99.90;;;;;;5043553;28;20041;-77
2022/05/19 07:34:22;;;;;;;23.50;20.08;;;18.20;99.90;;;;;;5022494;28;20049;-75
2022/05/19 07:36:48;;;;;;;36.22;28.38;;;18.20;99.90;;;;;;5042574;28;20053;-76
2022/05/19 07:39:15;;;;;;;23.60;19.48;;;19.10;99.90;;;;;;5023105;28;20369;-80
2022/05/19 07:41:40;;;;;;;23.63;19.65;;;18.20;99.90;;;;;;5019076;28;20493;-76
2022/05/19 07:44:07;;;;;;;22.00;18.35;;;18.20;99.90;;;;;;5020760;28;20037;-75
2022/05/19 07:46:34;;;;;;;24.52;18.33;;;18.20;99.90;;;;;;5042582;28;20444;-81
2022/05/19 07:49:00;;;;;;;23.48;18.88;;;18.20;99.90;;;;;;5023608;28;20032;-75
2022/05/19 07:51:31;;;;;;;25.88;19.27;;;18.90;99.90;;;;;;5004740;28;20461;-77
2022/05/19 07:53:57;;;;;;;20.92;18.35;;;18.70;99.90;;;;;;5026953;28;20112;-80
2022/05/19 07:56:23;;;;;;;20.40;18.08;;;18.70;99.90;;;;;;5040302;28;20166;-74
2022/05/19 07:58:50;;;;;;;20.10;17.23;;;18.30;99.90;;;;;;5027143;28;20041;-78
2022/05/19 08:01:16;;;;;;;24.02;21.27;;;18.40;99.90;;;;;;5015919;28;20037;-74
2022/05/19 08:03:43;;;;;;;24.73;20.10;;;18.40;99.90;;;;;;5021277;28;20048;-74
2022/05/19 08:06:10;;;;;;;25.55;19.17;;;18.40;99.90;;;;;;5028910;28;20076;-77
2022/05/19 08:08:40;;;;;;;23.88;17.98;;;18.40;99.90;;;;;;5038384;28;20033;-76
2022/05/19 08:11:07;;;;;;;19.75;17.65;;;18.20;99.90;;;;;;5045082;28;20044;-77
2022/05/19 08:16:17;;;;;;;21.58;17.85;;;18.50;99.90;;;;;;5046756;28;20037;-82
2022/05/19 08:18:44;;;;;;;20.45;17.27;;;18.50;99.90;;;;;;5038770;28;20053;-81
2022/05/19 08:21:11;;;;;;;21.10;17.38;;;19.00;99.90;;;;;;5046355;28;20041;-77
2022/05/19 08:23:43;;;;;;;23.80;19.00;;;18.50;99.90;;;;;;5027208;28;20052;-82
2022/05/19 08:26:09;;;;;;;22.30;18.52;;;18.70;99.90;;;;;;5036666;28;20032;-81
2022/05/19 08:28:39;;;;;;;23.30;18.70;;;18.50;99.90;;;;;;5020655;28;20050;-79
2022/05/19 08:31:11;;;;;;;23.02;18.08;;;19.00;99.90;;;;;;5009738;28;20041;-78
2022/05/19 08:33:38;;;;;;;21.75;18.52;;;18.50;99.90;;;;;;5019807;28;20045;-81
2022/05/19 08:36:04;;;;;;;25.20;18.50;;;18.60;99.90;;;;;;5010501;28;20400;-82
2022/05/19 08:38:31;;;;;;;22.35;17.25;;;18.60;99.90;;;;;;5038655;28;20045;-79
2022/05/19 08:41:05;;;;;;;19.75;15.75;;;18.60;99.90;;;;;;5024903;28;20450;-79
2022/05/19 08:43:41;;;;;;;;;;;18.70;99.90;;;;;;5019847;28;20289;-78
2022/05/19 08:46:07;;;;;;;20.02;16.60;;;18.70;99.90;;;;;;5037684;28;19925;-81
2022/05/19 08:48:35;;;;;;;20.10;16.63;;;18.70;99.90;;;;;;5045027;28;20401;-78
2022/05/19 08:51:04;;;;;;;18.92;16.30;;;18.80;99.90;;;;;;5041386;28;20120;-81
2022/05/19 08:53:40;;;;;;;20.58;16.25;;;18.90;99.90;;;;;;5037546;28;20250;-78
2022/05/19 08:56:32;;;;;;;22.60;17.80;;;19.00;99.90;;;;;;5026685;28;20033;-81
2022/05/19 08:59:30;;;;;;;22.42;17.58;;;19.10;99.90;;;;;;5024980;28;20062;-80
2022/05/19 09:02:13;;;;;;;18.88;16.85;;;19.10;99.90;;;;;;5006883;28;20054;-76
2022/05/19 09:04:58;;;;;;;19.63;16.95;;;19.30;99.90;;;;;;5014357;28;20047;-80
2022/05/19 09:10:26;;;;;;;20.70;15.63;;;19.40;99.90;;;;;;5022490;28;20041;-77
2022/05/19 09:13:03;;;;;;;18.42;16.33;;;19.50;99.90;;;;;;5019631;28;20067;-76
2022/05/19 09:15:29;;;;;;;18.25;14.50;;;19.60;99.90;;;;;;5038768;28;20056;-79
2022/05/19 09:17:55;;;;;;;17.38;14.98;;;19.60;99.90;;;;;;5025075;28;20048;-81
2022/05/19 09:20:31;;;;;;;18.48;15.98;;;19.70;99.90;;;;;;5021137;28;20037;-79
2022/05/19 09:23:02;;;;;;;20.38;16.52;;;19.80;99.90;;;;;;5019218;28;20036;-80
2022/05/19 09:25:27;;;;;;;19.42;17.48;;;20.00;99.90;;;;;;5021136;28;20044;-75
2022/05/19 09:27:53;;;;;;;18.77;15.05;;;20.00;99.90;;;;;;5024445;28;20103;-79
2022/05/19 09:30:45;;;;;;;19.17;15.60;;;20.10;99.90;;;;;;5040173;28;20053;-81
2022/05/19 09:33:21;;;;;;;18.38;15.90;;;20.10;99.90;;;;;;5020866;28;20412;-81
2022/05/19 09:35:55;;;;;;;17.80;15.20;;;20.20;99.90;;;;;;5037217;28;20489;-77
2022/05/19 09:38:49;;;;;;;16.38;14.63;;;20.20;99.90;;;;;;5027418;28;20503;-79
2022/05/19 09:41:17;;;;;;;20.55;15.82;;;20.20;99.90;;;;;;5018944;28;20476;-77
2022/05/19 09:43:49;;;;;;;17.88;15.52;;;20.20;99.90;;;;;;5035736;28;20053;-76
2022/05/19 09:46:16;;;;;;;19.42;14.32;;;20.20;99.90;;;;;;5042893;28;20045;-77
2022/05/19 09:49:01;;;;;;;21.30;16.02;;;20.20;99.90;;;;;;5002960;28;20041;-77
2022/05/19 09:51:38;;;;;;;18.90;15.35;;;20.30;99.90;;;;;;5042935;28;20045;-79
2022/05/19 09:54:04;;;;;;;16.92;15.07;;;20.40;99.90;;;;;;5006436;28;20037;-78
2022/05/19 09:56:42;;;;;;;17.58;15.38;;;20.40;99.90;;;;;;5029260;28;20480;-80
2022/05/19 09:59:14;;;;;;;18.35;15.02;;;20.50;99.90;;;;;;5036894;28;20069;-77
2022/05/19 10:01:45;;;;;;;20.30;14.35;;;20.60;99.90;;;;;;5030283;28;20045;-81
2022/05/19 10:04:39;;;;;;;15.73;13.25;;;20.70;99.90;;;;;;5040141;28;20110;-79
2022/05/19 10:07:17;;;;;;;;;;;20.80;99.90;;;;;;5024451;28;20080;-80
2022/05/19 10:09:47;;;;;;;17.92;13.27;;;20.90;99.90;;;;;;5018592;28;19982;-77
2022/05/19 10:12:20;;;;;;;23.75;14.68;;;21.00;99.90;;;;;;5039114;28;20059;-77
2022/05/19 10:14:49;;;;;;;16.38;12.73;;;21.10;99.90;;;;;;5020454;28;20585;-77
2022/05/19 10:17:27;;;;;;;14.48;11.80;;;21.30;99.90;;;;;;5005245;28;20147;-80
2022/05/19 10:20:19;;;;;;;16.95;11.60;;;21.40;99.90;;;;;;5018453;28;20245;-79
2022/05/19 10:23:15;;;;;;;16.15;12.15;;;21.60;99.90;;;;;;5037604;28;20049;-80
2022/05/19 10:26:03;;;;;;;10.90;9.02;;;21.70;99.90;;;;;;5037793;28;20057;-77
2022/05/19 10:32:17;;;;;;;7.97;7.18;;;21.90;99.90;;;;;;5033716;28;20529;-80
2022/05/19 10:35:27;;;;;;;7.60;6.45;;;22.00;99.90;;;;;;5023521;28;20084;-76
2022/05/19 10:38:29;;;;;;;7.60;6.85;;;22.00;99.90;;;;;;5004720;28;21533;-80
2022/05/19 10:41:13;;;;;;;7.60;6.78;;;22.00;99.90;;;;;;5003530;28;20056;-79
2022/05/19 10:43:54;;;;;;;7.47;6.13;;;22.00;99.90;;;;;;5006950;28;20519;-81
2022/05/19 10:46:23;;;;;;;8.25;6.18;;;21.90;99.90;;;;;;5012618;28;20041;-80
2022/05/19 10:49:04;;;;;;;9.65;6.05;;;22.00;99.90;;;;;;5040257;28;20123;-81
2022/05/19 10:51:55;;;;;;;6.68;6.05;;;22.10;99.90;;;;;;5005354;28;20052;-80
2022/05/19 10:54:37;;;;;;;6.50;5.80;;;22.30;99.90;;;;;;5043665;28;20048;-78
2022/05/19 10:57:21;;;;;;;7.72;5.60;;;22.60;99.90;;;;;;5024733;28;20091;-79
2022/05/19 11:00:07;;;;;;;7.95;5.32;;;22.70;99.90;;;;;;5006720;28;20103;-81
2022/05/19 11:03:02;;;;;;;8.65;5.80;;;22.90;99.90;;;;;;5025274;28;20076;-79
2022/05/19 11:05:37;;;;;;;7.32;6.00;;;23.00;99.90;;;;;;5014158;28;20045;-78
2022/05/19 11:08:39;;;;;;;12.57;7.65;;;23.10;99.90;;;;;;5023531;28;20052;-81
2022/05/19 11:11:18;;;;;;;8.45;6.70;;;23.20;99.90;;;;;;5004417;28;20519;-79
2022/05/19 11:14:03;;;;;;;8.57;6.60;;;23.30;99.90;;;;;;5023213;28;20053;-80
2022/05/19 11:17:10;;;;;;;9.23;5.72;;;23.50;99.90;;;;;;5024430;28;20046;-75
2022/05/19 11:19:53;;;;;;;6.10;5.60;;;23.60;99.90;;;;;;5024245;28;20048;-79
2022/05/19 11:22:24;;;;;;;4.60;4.20;;;23.80;99.90;;;;;;5021201;28;20175;-78
2022/05/19 11:27:47;;;;;;;5.57;4.65;;;23.90;99.90;;;;;;5029160;28;20417;-78
2022/05/19 11:30:19;;;;;;;6.03;5.45;;;24.00;99.90;;;;;;5005011;28;20504;-75
2022/05/19 11:32:56;;;;;;;6.97;5.88;;;24.00;99.90;;;;;;5039771;28;20042;-79
2022/05/19 11:35:32;;;;;;;7.30;5.93;;;23.90;99.90;;;;;;5010494;28;20623;-80
2022/05/19 11:38:06;;;;;;;7.80;5.53;;;23.70;99.90;;;;;;5046073;28;20042;-80
2022/05/19 11:41:06;;;;;;;6.97;5.70;;;23.60;99.90;;;;;;5004994;28;20084;-79
2022/05/19 11:43:52;;;;;;;7.30;6.38;;;23.60;99.90;;;;;;5012077;28;20108;-79
2022/05/19 11:46:25;;;;;;;5.60;5.03;;;23.70;99.90;;;;;;5023797;28;20055;-78
2022/05/19 11:55:12;;;;;;;7.40;6.70;;;24.00;99.90;;;;;;4979068;28;20465;-79
2022/05/19 11:57:41;;;;;;;;;;;24.00;99.90;;;;;;4980449;28;20085;-77
2022/05/19 12:00:11;;;;;;;6.28;5.35;;;23.90;99.90;;;;;;5006724;28;19917;-77
2022/05/19 12:02:40;;;;;;;8.80;6.50;;;23.90;99.90;;;;;;5004111;28;20046;-79
2022/05/19 12:05:17;;;;;;;12.25;6.50;;;23.80;99.90;;;;;;5023993;28;20045;-80
2022/05/19 12:08:11;;;;;;;13.45;6.82;;;23.80;99.90;;;;;;5006148;28;20051;-78
2022/05/19 12:10:48;;;;;;;8.52;7.28;;;23.70;99.90;;;;;;5017129;28;20057;-80
2022/05/19 12:13:19;;;;;;;8.50;6.63;;;23.60;99.90;;;;;;5023156;28;20055;-78
2022/05/19 12:15:57;;;;;;;10.23;7.20;;;23.60;99.90;;;;;;5022607;28;20049;-80
2022/05/19 12:18:22;;;;;;;8.35;6.93;;;23.50;99.90;;;;;;5009194;28;20044;-79
2022/05/19 12:20:53;;;;;;;11.10;6.70;;;23.90;99.90;;;;;;5041180;28;20045;-80
2022/05/19 12:23:19;;;;;;;9.00;7.75;;;23.40;99.90;;;;;;5019604;28;20037;-80
2022/05/19 12:25:48;;;;;;;8.82;7.00;;;23.40;99.90;;;;;;5025029;28;20037;-78
2022/05/19 12:28:14;;;;;;;10.13;8.07;;;23.40;99.90;;;;;;5003004;28;20048;-77
2022/05/19 12:33:48;;;;;;;9.60;8.70;;;23.30;99.90;;;;;;5048454;28;20556;-80
2022/05/19 12:36:24;;;;;;;10.70;8.20;;;23.20;99.90;;;;;;5006222;28;20033;-78
2022/05/19 12:38:51;;;;;;;13.93;7.70;;;23.10;99.90;;;;;;5027859;28;20045;-76
2022/05/19 12:41:23;;;;;;;10.68;8.00;;;23.40;99.90;;;;;;5042165;28;20090;-80
2022/05/19 12:43:51;;;;;;;8.45;7.35;;;23.10;99.90;;;;;;5021905;28;20049;-79
2022/05/19 12:46:44;;;;;;;14.05;7.50;;;23.60;99.90;;;;;;5037027;28;20112;-78
2022/05/19 12:49:25;;;;;;;6.75;6.15;;;22.90;99.90;;;;;;5013607;28;20485;-75
2022/05/19 12:51:57;;;;;;;7.25;5.35;;;22.70;99.90;;;;;;5022087;28;20049;-77
2022/05/19 12:54:27;;;;;;;9.13;4.60;;;22.30;99.90;;;;;;5022698;28;20152;-76
2022/05/19 12:57:00;;;;;;;8.88;2.92;;;22.10;99.90;;;;;;5001230;28;20139;-76
2022/05/19 12:59:56;;;;;;;5.57;2.83;;;22.30;99.90;;;;;;5019934;28;20044;-75
2022/05/19 13:03:13;;;;;;;1.80;1.45;;;21.00;99.90;;;;;;5023445;28;20052;-76
2022/05/19 13:05:54;;;;;;;4.57;1.88;;;20.60;99.90;;;;;;4938362;28;20035;-95
2022/05/19 13:08:43;;;;;;;3.95;1.13;;;20.20;99.90;;;;;;4950471;28;20050;-80
2022/05/19 13:11:18;;;;;;;4.75;1.25;;;19.90;99.90;;;;;;5023961;28;20512;-77
2022/05/19 13:13:59;;;;;;;8.50;1.30;;;19.60;99.90;;;;;;5045124;28;20075;-78
2022/05/19 13:16:37;;;;;;;5.70;1.77;;;19.40;99.90;;;;;;5022688;28;20057;-78